South Harrison Township, New Jersey
Current Conditions -  °F | °C
As of 6:54 AM on Sunday 23 Nov 2014 (Local Time) from KPHL Reporting Station
Broken Clouds Broken Clouds  
Wind Chill: 36°   Ceiling: 18000
Heat Index: 41°   Visibility: 10mi
Dew Point: 24°   Wind: 8mph
Humidity: 51%   Direction: 180°S
Pressure: 30.24"   Gusts: NA
Location:  39.7176°N, 75.2231°W
Report Text: KPHL 231154Z 18007KT 10SM FEW090 SCT110 BKN180 BKN250 05/M04 A3024 RMK AO2 SLP239 T00501044 10061 20033 52008 $
Loading
Personal Weather Stations






























Interactive Weather Map New forecast layout! Learn more

10-Day Weather Forecast

Advertisements
Track Severe Weather on mobile